sensor_id;sensor_type;location;lat;lon;timestamp;P1;durP1;ratioP1;P2;durP2;ratioP2
11651;SDS011;5882;48.818;9.114;2022-10-17T00:00:41;1.90;;;1.77;;
11651;SDS011;5882;48.818;9.114;2022-10-17T00:03:08;2.00;;;1.80;;
11651;SDS011;5882;48.818;9.114;2022-10-17T00:05:37;1.90;;;1.75;;
11651;SDS011;5882;48.818;9.114;2022-10-17T00:08:04;2.50;;;2.30;;
11651;SDS011;5882;48.818;9.114;2022-10-17T00:10:32;2.25;;;2.05;;
11651;SDS011;5882;48.818;9.114;2022-10-17T00:12:58;2.50;;;2.17;;
11651;SDS011;5882;48.818;9.114;2022-10-17T00:15:25;7.78;;;4.90;;
11651;SDS011;5882;48.818;9.114;2022-10-17T00:17:51;6.50;;;4.00;;
11651;SDS011;5882;48.818;9.114;2022-10-17T00:20:18;2.72;;;2.35;;
11651;SDS011;5882;48.818;9.114;2022-10-17T00:22:44;2.30;;;2.10;;
11651;SDS011;5882;48.818;9.114;2022-10-17T00:25:11;2.13;;;1.90;;
11651;SDS011;5882;48.818;9.114;2022-10-17T00:27:39;2.05;;;1.92;;
11651;SDS011;5882;48.818;9.114;2022-10-17T00:30:07;2.70;;;2.30;;
11651;SDS011;5882;48.818;9.114;2022-10-17T00:32:35;3.42;;;1.77;;
11651;SDS011;5882;48.818;9.114;2022-10-17T00:35:01;2.67;;;2.47;;
11651;SDS011;5882;48.818;9.114;2022-10-17T00:37:28;1.80;;;1.70;;
11651;SDS011;5882;48.818;9.114;2022-10-17T00:39:55;1.85;;;1.75;;
11651;SDS011;5882;48.818;9.114;2022-10-17T00:42:22;1.55;;;1.45;;
11651;SDS011;5882;48.818;9.114;2022-10-17T00:45:09;1.67;;;1.58;;
11651;SDS011;5882;48.818;9.114;2022-10-17T00:47:37;1.65;;;1.55;;
11651;SDS011;5882;48.818;9.114;2022-10-17T00:50:04;2.90;;;1.20;;
11651;SDS011;5882;48.818;9.114;2022-10-17T00:52:32;1.58;;;1.40;;
11651;SDS011;5882;48.818;9.114;2022-10-17T00:54:59;3.80;;;1.70;;
11651;SDS011;5882;48.818;9.114;2022-10-17T00:57:28;1.60;;;1.50;;
11651;SDS011;5882;48.818;9.114;2022-10-17T00:59:55;1.60;;;1.50;;
11651;SDS011;5882;48.818;9.114;2022-10-17T01:02:31;2.17;;;1.80;;
11651;SDS011;5882;48.818;9.114;2022-10-17T01:04:58;1.60;;;1.50;;
11651;SDS011;5882;48.818;9.114;2022-10-17T01:07:25;2.50;;;1.52;;
11651;SDS011;5882;48.818;9.114;2022-10-17T01:09:52;1.63;;;1.52;;
11651;SDS011;5882;48.818;9.114;2022-10-17T01:12:19;1.58;;;1.30;;
11651;SDS011;5882;48.818;9.114;2022-10-17T01:14:49;1.75;;;1.65;;
11651;SDS011;5882;48.818;9.114;2022-10-17T01:17:21;1.88;;;1.77;;
11651;SDS011;5882;48.818;9.114;2022-10-17T01:19:58;1.90;;;1.80;;
11651;SDS011;5882;48.818;9.114;2022-10-17T01:22:29;2.08;;;1.90;;
11651;SDS011;5882;48.818;9.114;2022-10-17T01:25:10;2.10;;;1.90;;
11651;SDS011;5882;48.818;9.114;2022-10-17T01:27:53;3.00;;;2.03;;
11651;SDS011;5882;48.818;9.114;2022-10-17T01:30:28;2.13;;;1.52;;
11651;SDS011;5882;48.818;9.114;2022-10-17T01:33:02;1.63;;;1.45;;
11651;SDS011;5882;48.818;9.114;2022-10-17T01:35:31;2.60;;;1.60;;
11651;SDS011;5882;48.818;9.114;2022-10-17T01:38:03;1.90;;;1.70;;
11651;SDS011;5882;48.818;9.114;2022-10-17T01:40:33;1.70;;;1.60;;
11651;SDS011;5882;48.818;9.114;2022-10-17T01:43:02;2.15;;;2.00;;
11651;SDS011;5882;48.818;9.114;2022-10-17T01:45:31;1.80;;;1.65;;
11651;SDS011;5882;48.818;9.114;2022-10-17T01:47:59;1.70;;;1.60;;
11651;SDS011;5882;48.818;9.114;2022-10-17T01:50:30;1.88;;;1.77;;
11651;SDS011;5882;48.818;9.114;2022-10-17T01:52:58;1.60;;;1.50;;
11651;SDS011;5882;48.818;9.114;2022-10-17T01:55:27;1.73;;;1.63;;
11651;SDS011;5882;48.818;9.114;2022-10-17T01:57:56;1.98;;;1.88;;
11651;SDS011;5882;48.818;9.114;2022-10-17T02:00:24;1.70;;;1.60;;
11651;SDS011;5882;48.818;9.114;2022-10-17T02:02:52;1.65;;;1.55;;
11651;SDS011;5882;48.818;9.114;2022-10-17T02:05:21;2.08;;;1.80;;
11651;SDS011;5882;48.818;9.114;2022-10-17T02:07:50;2.22;;;2.05;;
11651;SDS011;5882;48.818;9.114;2022-10-17T02:10:18;1.85;;;1.75;;
11651;SDS011;5882;48.818;9.114;2022-10-17T02:12:48;1.67;;;1.58;;
11651;SDS011;5882;48.818;9.114;2022-10-17T02:15:24;1.40;;;1.30;;
11651;SDS011;5882;48.818;9.114;2022-10-17T02:17:55;1.85;;;1.73;;
11651;SDS011;5882;48.818;9.114;2022-10-17T02:20:23;2.45;;;2.25;;
11651;SDS011;5882;48.818;9.114;2022-10-17T02:22:53;2.63;;;1.92;;
11651;SDS011;5882;48.818;9.114;2022-10-17T02:25:25;1.67;;;1.55;;
11651;SDS011;5882;48.818;9.114;2022-10-17T02:27:55;1.75;;;1.65;;
11651;SDS011;5882;48.818;9.114;2022-10-17T02:30:28;1.70;;;1.60;;
11651;SDS011;5882;48.818;9.114;2022-10-17T02:32:56;1.65;;;1.55;;
11651;SDS011;5882;48.818;9.114;2022-10-17T02:35:24;1.60;;;1.50;;
11651;SDS011;5882;48.818;9.114;2022-10-17T02:37:54;1.52;;;1.42;;
11651;SDS011;5882;48.818;9.114;2022-10-17T02:40:20;1.40;;;1.30;;
11651;SDS011;5882;48.818;9.114;2022-10-17T02:42:48;1.40;;;1.30;;
11651;SDS011;5882;48.818;9.114;2022-10-17T02:45:15;2.38;;;1.58;;
11651;SDS011;5882;48.818;9.114;2022-10-17T02:47:43;1.52;;;1.42;;
11651;SDS011;5882;48.818;9.114;2022-10-17T02:50:13;1.92;;;1.73;;
11651;SDS011;5882;48.818;9.114;2022-10-17T02:52:42;1.85;;;1.60;;
11651;SDS011;5882;48.818;9.114;2022-10-17T02:55:12;1.52;;;1.42;;
11651;SDS011;5882;48.818;9.114;2022-10-17T02:57:43;1.58;;;1.48;;
11651;SDS011;5882;48.818;9.114;2022-10-17T03:00:11;1.65;;;1.55;;
11651;SDS011;5882;48.818;9.114;2022-10-17T03:02:39;1.45;;;1.35;;
11651;SDS011;5882;48.818;9.114;2022-10-17T03:05:06;1.50;;;1.40;;
11651;SDS011;5882;48.818;9.114;2022-10-17T03:07:33;1.35;;;1.25;;
11651;SDS011;5882;48.818;9.114;2022-10-17T03:09:59;2.53;;;1.85;;
11651;SDS011;5882;48.818;9.114;2022-10-17T03:12:27;1.52;;;1.42;;
11651;SDS011;5882;48.818;9.114;2022-10-17T03:14:53;1.45;;;1.35;;
11651;SDS011;5882;48.818;9.114;2022-10-17T03:17:20;1.63;;;1.52;;
11651;SDS011;5882;48.818;9.114;2022-10-17T03:19:46;1.50;;;1.40;;
11651;SDS011;5882;48.818;9.114;2022-10-17T03:22:13;1.30;;;1.20;;
11651;SDS011;5882;48.818;9.114;2022-10-17T03:24:40;1.90;;;1.80;;
11651;SDS011;5882;48.818;9.114;2022-10-17T03:27:06;1.65;;;1.55;;
11651;SDS011;5882;48.818;9.114;2022-10-17T03:29:34;1.58;;;1.48;;
11651;SDS011;5882;48.818;9.114;2022-10-17T03:32:00;1.70;;;1.60;;
11651;SDS011;5882;48.818;9.114;2022-10-17T03:34:27;1.58;;;1.48;;
11651;SDS011;5882;48.818;9.114;2022-10-17T03:36:53;1.60;;;1.50;;
11651;SDS011;5882;48.818;9.114;2022-10-17T03:39:20;1.50;;;1.40;;
11651;SDS011;5882;48.818;9.114;2022-10-17T03:41:46;1.58;;;1.45;;
11651;SDS011;5882;48.818;9.114;2022-10-17T03:44:13;1.52;;;1.42;;
11651;SDS011;5882;48.818;9.114;2022-10-17T03:46:40;1.70;;;1.60;;
11651;SDS011;5882;48.818;9.114;2022-10-17T03:49:07;1.50;;;1.40;;
11651;SDS011;5882;48.818;9.114;2022-10-17T03:51:35;1.40;;;1.30;;
11651;SDS011;5882;48.818;9.114;2022-10-17T03:54:01;1.52;;;1.42;;
11651;SDS011;5882;48.818;9.114;2022-10-17T03:56:28;1.40;;;1.30;;
11651;SDS011;5882;48.818;9.114;2022-10-17T03:58:55;1.67;;;1.58;;
11651;SDS011;5882;48.818;9.114;2022-10-17T04:01:21;1.73;;;1.63;;
11651;SDS011;5882;48.818;9.114;2022-10-17T04:03:50;1.63;;;1.50;;
11651;SDS011;5882;48.818;9.114;2022-10-17T04:06:17;2.45;;;1.58;;
11651;SDS011;5882;48.818;9.114;2022-10-17T04:08:43;1.50;;;1.40;;
11651;SDS011;5882;48.818;9.114;2022-10-17T04:11:12;1.55;;;1.45;;
11651;SDS011;5882;48.818;9.114;2022-10-17T04:13:39;1.58;;;1.48;;
11651;SDS011;5882;48.818;9.114;2022-10-17T04:16:07;1.40;;;1.30;;
11651;SDS011;5882;48.818;9.114;2022-10-17T04:18:33;1.48;;;1.20;;
11651;SDS011;5882;48.818;9.114;2022-10-17T04:21:01;1.63;;;1.52;;
11651;SDS011;5882;48.818;9.114;2022-10-17T04:23:28;1.55;;;1.45;;
11651;SDS011;5882;48.818;9.114;2022-10-17T04:25:54;1.63;;;1.52;;
11651;SDS011;5882;48.818;9.114;2022-10-17T04:28:21;1.50;;;1.40;;
11651;SDS011;5882;48.818;9.114;2022-10-17T04:30:54;1.83;;;1.73;;
11651;SDS011;5882;48.818;9.114;2022-10-17T04:33:20;1.63;;;1.52;;
11651;SDS011;5882;48.818;9.114;2022-10-17T04:35:53;2.08;;;1.98;;
11651;SDS011;5882;48.818;9.114;2022-10-17T04:38:21;2.45;;;1.38;;
11651;SDS011;5882;48.818;9.114;2022-10-17T04:40:47;1.83;;;1.70;;
11651;SDS011;5882;48.818;9.114;2022-10-17T04:43:14;1.80;;;1.60;;
11651;SDS011;5882;48.818;9.114;2022-10-17T04:45:40;1.73;;;1.63;;
11651;SDS011;5882;48.818;9.114;2022-10-17T04:48:07;1.63;;;1.52;;
11651;SDS011;5882;48.818;9.114;2022-10-17T04:50:33;2.03;;;1.83;;
11651;SDS011;5882;48.818;9.114;2022-10-17T04:53:00;1.90;;;1.80;;
11651;SDS011;5882;48.818;9.114;2022-10-17T04:55:28;1.80;;;1.70;;
11651;SDS011;5882;48.818;9.114;2022-10-17T04:57:54;1.83;;;1.73;;
11651;SDS011;5882;48.818;9.114;2022-10-17T05:00:21;2.05;;;1.85;;
11651;SDS011;5882;48.818;9.114;2022-10-17T05:02:48;1.50;;;1.40;;
11651;SDS011;5882;48.818;9.114;2022-10-17T05:05:14;1.92;;;1.83;;
11651;SDS011;5882;48.818;9.114;2022-10-17T05:07:41;1.77;;;1.67;;
11651;SDS011;5882;48.818;9.114;2022-10-17T05:10:07;1.50;;;1.40;;
11651;SDS011;5882;48.818;9.114;2022-10-17T05:12:35;1.73;;;1.63;;
11651;SDS011;5882;48.818;9.114;2022-10-17T05:15:02;1.92;;;1.83;;
11651;SDS011;5882;48.818;9.114;2022-10-17T05:17:29;2.25;;;1.83;;
11651;SDS011;5882;48.818;9.114;2022-10-17T05:19:55;1.80;;;1.70;;
11651;SDS011;5882;48.818;9.114;2022-10-17T05:22:22;1.98;;;1.75;;
11651;SDS011;5882;48.818;9.114;2022-10-17T05:24:48;1.77;;;1.67;;
11651;SDS011;5882;48.818;9.114;2022-10-17T05:27:15;1.70;;;1.60;;
11651;SDS011;5882;48.818;9.114;2022-10-17T05:29:43;1.95;;;1.77;;
11651;SDS011;5882;48.818;9.114;2022-10-17T05:32:10;3.17;;;1.90;;
11651;SDS011;5882;48.818;9.114;2022-10-17T05:34:37;2.28;;;2.08;;
11651;SDS011;5882;48.818;9.114;2022-10-17T05:37:03;2.25;;;2.05;;
11651;SDS011;5882;48.818;9.114;2022-10-17T05:39:30;1.80;;;1.70;;
11651;SDS011;5882;48.818;9.114;2022-10-17T05:41:57;1.73;;;1.63;;
11651;SDS011;5882;48.818;9.114;2022-10-17T05:44:23;2.30;;;2.10;;
11651;SDS011;5882;48.818;9.114;2022-10-17T05:46:51;1.60;;;1.50;;
11651;SDS011;5882;48.818;9.114;2022-10-17T05:49:18;2.15;;;1.95;;
11651;SDS011;5882;48.818;9.114;2022-10-17T05:51:45;2.17;;;1.98;;
11651;SDS011;5882;48.818;9.114;2022-10-17T05:54:11;1.95;;;1.85;;
11651;SDS011;5882;48.818;9.114;2022-10-17T05:56:40;2.08;;;1.90;;
11651;SDS011;5882;48.818;9.114;2022-10-17T05:59:07;2.58;;;2.25;;
11651;SDS011;5882;48.818;9.114;2022-10-17T06:01:34;2.58;;;1.88;;
11651;SDS011;5882;48.818;9.114;2022-10-17T06:04:02;1.90;;;1.80;;
11651;SDS011;5882;48.818;9.114;2022-10-17T06:06:28;1.92;;;1.52;;
11651;SDS011;5882;48.818;9.114;2022-10-17T06:08:55;2.90;;;2.00;;
11651;SDS011;5882;48.818;9.114;2022-10-17T06:11:22;2.08;;;1.70;;
11651;SDS011;5882;48.818;9.114;2022-10-17T06:13:48;1.73;;;1.63;;
11651;SDS011;5882;48.818;9.114;2022-10-17T06:16:15;1.75;;;1.65;;
11651;SDS011;5882;48.818;9.114;2022-10-17T06:18:42;2.15;;;2.00;;
11651;SDS011;5882;48.818;9.114;2022-10-17T06:21:10;1.83;;;1.73;;
11651;SDS011;5882;48.818;9.114;2022-10-17T06:23:37;1.73;;;1.63;;
11651;SDS011;5882;48.818;9.114;2022-10-17T06:26:04;1.75;;;1.65;;
11651;SDS011;5882;48.818;9.114;2022-10-17T06:28:31;1.88;;;1.77;;
11651;SDS011;5882;48.818;9.114;2022-10-17T06:30:58;1.70;;;1.60;;
11651;SDS011;5882;48.818;9.114;2022-10-17T06:33:25;1.95;;;1.50;;
11651;SDS011;5882;48.818;9.114;2022-10-17T06:35:51;1.60;;;1.50;;
11651;SDS011;5882;48.818;9.114;2022-10-17T06:38:20;1.52;;;1.40;;
11651;SDS011;5882;48.818;9.114;2022-10-17T06:40:47;2.33;;;1.60;;
11651;SDS011;5882;48.818;9.114;2022-10-17T06:43:13;1.75;;;1.65;;
11651;SDS011;5882;48.818;9.114;2022-10-17T06:45:40;1.55;;;1.45;;
11651;SDS011;5882;48.818;9.114;2022-10-17T06:48:07;2.58;;;1.95;;
11651;SDS011;5882;48.818;9.114;2022-10-17T06:50:34;2.00;;;1.80;;
11651;SDS011;5882;48.818;9.114;2022-10-17T06:53:00;2.00;;;1.90;;
11651;SDS011;5882;48.818;9.114;2022-10-17T06:55:28;3.10;;;2.42;;
11651;SDS011;5882;48.818;9.114;2022-10-17T06:57:55;2.20;;;1.85;;
11651;SDS011;5882;48.818;9.114;2022-10-17T07:00:22;2.33;;;2.15;;
11651;SDS011;5882;48.818;9.114;2022-10-17T07:02:51;4.00;;;2.05;;
11651;SDS011;5882;48.818;9.114;2022-10-17T07:05:17;2.95;;;2.35;;
11651;SDS011;5882;48.818;9.114;2022-10-17T07:07:44;2.33;;;2.13;;
11651;SDS011;5882;48.818;9.114;2022-10-17T07:10:11;3.08;;;2.78;;
11651;SDS011;5882;48.818;9.114;2022-10-17T07:12:39;2.90;;;2.40;;
11651;SDS011;5882;48.818;9.114;2022-10-17T07:15:05;2.22;;;2.03;;
11651;SDS011;5882;48.818;9.114;2022-10-17T07:17:32;2.83;;;2.28;;
11651;SDS011;5882;48.818;9.114;2022-10-17T07:19:59;2.65;;;2.45;;
11651;SDS011;5882;48.818;9.114;2022-10-17T07:22:25;2.42;;;2.22;;
11651;SDS011;5882;48.818;9.114;2022-10-17T07:24:52;2.55;;;2.35;;
11651;SDS011;5882;48.818;9.114;2022-10-17T07:27:19;2.40;;;2.20;;
11651;SDS011;5882;48.818;9.114;2022-10-17T07:29:47;3.20;;;2.83;;
11651;SDS011;5882;48.818;9.114;2022-10-17T07:32:13;4.15;;;2.20;;
11651;SDS011;5882;48.818;9.114;2022-10-17T07:34:40;3.45;;;2.50;;
11651;SDS011;5882;48.818;9.114;2022-10-17T07:37:07;3.22;;;2.70;;
11651;SDS011;5882;48.818;9.114;2022-10-17T07:39:34;4.60;;;1.95;;
11651;SDS011;5882;48.818;9.114;2022-10-17T07:42:01;2.72;;;2.53;;
11651;SDS011;5882;48.818;9.114;2022-10-17T07:44:27;2.20;;;2.00;;
11651;SDS011;5882;48.818;9.114;2022-10-17T07:46:55;2.30;;;2.10;;
11651;SDS011;5882;48.818;9.114;2022-10-17T07:49:22;2.95;;;2.75;;
11651;SDS011;5882;48.818;9.114;2022-10-17T07:51:49;2.70;;;2.33;;
11651;SDS011;5882;48.818;9.114;2022-10-17T07:54:16;2.50;;;2.30;;
11651;SDS011;5882;48.818;9.114;2022-10-17T07:56:42;2.17;;;1.98;;
11651;SDS011;5882;48.818;9.114;2022-10-17T07:59:14;3.33;;;2.00;;
11651;SDS011;5882;48.818;9.114;2022-10-17T08:01:41;2.58;;;1.90;;
11651;SDS011;5882;48.818;9.114;2022-10-17T08:04:09;2.05;;;1.88;;
11651;SDS011;5882;48.818;9.114;2022-10-17T08:06:35;2.53;;;2.33;;
11651;SDS011;5882;48.818;9.114;2022-10-17T08:09:02;2.50;;;2.10;;
11651;SDS011;5882;48.818;9.114;2022-10-17T08:11:29;2.45;;;1.90;;
11651;SDS011;5882;48.818;9.114;2022-10-17T08:13:55;2.20;;;2.00;;
11651;SDS011;5882;48.818;9.114;2022-10-17T08:16:22;2.20;;;1.98;;
11651;SDS011;5882;48.818;9.114;2022-10-17T08:18:49;2.33;;;2.10;;
11651;SDS011;5882;48.818;9.114;2022-10-17T08:21:17;3.50;;;2.15;;
11651;SDS011;5882;48.818;9.114;2022-10-17T08:23:43;2.55;;;1.90;;
11651;SDS011;5882;48.818;9.114;2022-10-17T08:26:10;1.85;;;1.60;;
11651;SDS011;5882;48.818;9.114;2022-10-17T08:28:38;1.65;;;1.50;;
11651;SDS011;5882;48.818;9.114;2022-10-17T08:31:05;1.92;;;1.73;;
11651;SDS011;5882;48.818;9.114;2022-10-17T08:33:32;3.72;;;2.00;;
11651;SDS011;5882;48.818;9.114;2022-10-17T08:35:59;2.05;;;1.83;;
11651;SDS011;5882;48.818;9.114;2022-10-17T08:38:27;2.17;;;2.00;;
11651;SDS011;5882;48.818;9.114;2022-10-17T08:40:54;2.13;;;1.92;;
11651;SDS011;5882;48.818;9.114;2022-10-17T08:43:27;2.00;;;1.90;;
11651;SDS011;5882;48.818;9.114;2022-10-17T08:45:56;2.33;;;1.90;;
11651;SDS011;5882;48.818;9.114;2022-10-17T08:48:24;1.60;;;1.50;;
11651;SDS011;5882;48.818;9.114;2022-10-17T08:50:53;2.13;;;1.63;;
11651;SDS011;5882;48.818;9.114;2022-10-17T08:53:22;1.92;;;1.77;;
11651;SDS011;5882;48.818;9.114;2022-10-17T08:55:52;2.47;;;1.63;;
11651;SDS011;5882;48.818;9.114;2022-10-17T08:58:20;1.75;;;1.65;;
11651;SDS011;5882;48.818;9.114;2022-10-17T09:00:49;1.92;;;1.70;;
11651;SDS011;5882;48.818;9.114;2022-10-17T09:03:23;1.80;;;1.70;;
11651;SDS011;5882;48.818;9.114;2022-10-17T09:05:55;1.50;;;1.40;;
11651;SDS011;5882;48.818;9.114;2022-10-17T09:08:31;1.70;;;1.55;;
11651;SDS011;5882;48.818;9.114;2022-10-17T09:11:06;1.88;;;1.63;;
11651;SDS011;5882;48.818;9.114;2022-10-17T09:13:39;2.33;;;2.13;;
11651;SDS011;5882;48.818;9.114;2022-10-17T09:16:13;5.07;;;1.70;;
11651;SDS011;5882;48.818;9.114;2022-10-17T09:18:41;2.05;;;1.90;;
11651;SDS011;5882;48.818;9.114;2022-10-17T09:21:12;1.98;;;1.80;;
11651;SDS011;5882;48.818;9.114;2022-10-17T09:23:42;2.00;;;1.70;;
11651;SDS011;5882;48.818;9.114;2022-10-17T09:26:11;5.68;;;3.33;;
11651;SDS011;5882;48.818;9.114;2022-10-17T09:28:38;2.33;;;2.13;;
11651;SDS011;5882;48.818;9.114;2022-10-17T09:31:08;1.80;;;1.70;;
11651;SDS011;5882;48.818;9.114;2022-10-17T09:33:37;1.75;;;1.65;;
11651;SDS011;5882;48.818;9.114;2022-10-17T09:36:05;2.20;;;1.80;;
11651;SDS011;5882;48.818;9.114;2022-10-17T09:38:36;2.28;;;1.92;;
11651;SDS011;5882;48.818;9.114;2022-10-17T09:41:03;2.25;;;2.05;;
11651;SDS011;5882;48.818;9.114;2022-10-17T09:43:34;4.32;;;1.80;;
11651;SDS011;5882;48.818;9.114;2022-10-17T09:46:03;2.83;;;2.08;;
11651;SDS011;5882;48.818;9.114;2022-10-17T09:48:31;2.72;;;2.10;;
11651;SDS011;5882;48.818;9.114;2022-10-17T09:50:59;2.00;;;1.90;;
11651;SDS011;5882;48.818;9.114;2022-10-17T09:53:28;2.50;;;2.30;;
11651;SDS011;5882;48.818;9.114;2022-10-17T09:55:56;3.05;;;2.33;;
11651;SDS011;5882;48.818;9.114;2022-10-17T09:58:29;2.65;;;1.90;;
11651;SDS011;5882;48.818;9.114;2022-10-17T10:01:15;1.80;;;1.70;;
11651;SDS011;5882;48.818;9.114;2022-10-17T10:03:42;2.53;;;2.03;;
11651;SDS011;5882;48.818;9.114;2022-10-17T10:06:11;2.17;;;1.98;;
11651;SDS011;5882;48.818;9.114;2022-10-17T10:08:46;1.80;;;1.63;;
11651;SDS011;5882;48.818;9.114;2022-10-17T10:11:13;1.70;;;1.60;;
11651;SDS011;5882;48.818;9.114;2022-10-17T10:13:41;1.65;;;1.55;;
11651;SDS011;5882;48.818;9.114;2022-10-17T10:16:13;1.85;;;1.75;;
11651;SDS011;5882;48.818;9.114;2022-10-17T10:18:42;2.30;;;2.10;;
11651;SDS011;5882;48.818;9.114;2022-10-17T10:21:09;1.92;;;1.77;;
11651;SDS011;5882;48.818;9.114;2022-10-17T10:23:37;2.40;;;1.88;;
11651;SDS011;5882;48.818;9.114;2022-10-17T10:26:16;2.75;;;1.80;;
11651;SDS011;5882;48.818;9.114;2022-10-17T10:28:49;2.80;;;1.83;;
11651;SDS011;5882;48.818;9.114;2022-10-17T10:31:16;1.80;;;1.70;;
11651;SDS011;5882;48.818;9.114;2022-10-17T10:33:51;3.33;;;1.40;;
11651;SDS011;5882;48.818;9.114;2022-10-17T10:36:18;1.70;;;1.60;;
11651;SDS011;5882;48.818;9.114;2022-10-17T10:38:50;1.40;;;1.30;;
11651;SDS011;5882;48.818;9.114;2022-10-17T10:41:17;1.50;;;1.40;;
11651;SDS011;5882;48.818;9.114;2022-10-17T10:43:44;1.52;;;1.42;;
11651;SDS011;5882;48.818;9.114;2022-10-17T10:46:15;1.27;;;1.27;;
11651;SDS011;5882;48.818;9.114;2022-10-17T10:48:48;1.58;;;1.48;;
11651;SDS011;5882;48.818;9.114;2022-10-17T10:51:18;1.67;;;1.45;;
11651;SDS011;5882;48.818;9.114;2022-10-17T10:53:46;2.40;;;1.50;;
11651;SDS011;5882;48.818;9.114;2022-10-17T10:56:14;1.50;;;1.40;;
11651;SDS011;5882;48.818;9.114;2022-10-17T10:58:47;1.40;;;1.30;;
11651;SDS011;5882;48.818;9.114;2022-10-17T11:01:19;1.48;;;1.38;;
11651;SDS011;5882;48.818;9.114;2022-10-17T11:03:56;1.30;;;1.20;;
11651;SDS011;5882;48.818;9.114;2022-10-17T11:06:26;1.50;;;1.40;;
11651;SDS011;5882;48.818;9.114;2022-10-17T11:08:56;2.17;;;1.48;;
11651;SDS011;5882;48.818;9.114;2022-10-17T11:11:27;1.90;;;1.45;;
11651;SDS011;5882;48.818;9.114;2022-10-17T11:13:57;1.58;;;1.45;;
11651;SDS011;5882;48.818;9.114;2022-10-17T11:16:26;1.92;;;1.40;;
11651;SDS011;5882;48.818;9.114;2022-10-17T11:18:57;1.40;;;1.30;;
11651;SDS011;5882;48.818;9.114;2022-10-17T11:21:27;1.50;;;1.20;;
11651;SDS011;5882;48.818;9.114;2022-10-17T11:23:59;1.60;;;1.50;;
11651;SDS011;5882;48.818;9.114;2022-10-17T11:26:27;1.77;;;1.48;;
11651;SDS011;5882;48.818;9.114;2022-10-17T11:28:56;1.63;;;1.40;;
11651;SDS011;5882;48.818;9.114;2022-10-17T11:31:23;1.35;;;1.25;;
11651;SDS011;5882;48.818;9.114;2022-10-17T11:33:51;1.35;;;1.25;;
11651;SDS011;5882;48.818;9.114;2022-10-17T11:36:21;1.30;;;1.20;;
11651;SDS011;5882;48.818;9.114;2022-10-17T11:38:51;1.40;;;1.30;;
11651;SDS011;5882;48.818;9.114;2022-10-17T11:41:21;1.65;;;1.50;;
11651;SDS011;5882;48.818;9.114;2022-10-17T11:43:50;1.50;;;1.40;;
11651;SDS011;5882;48.818;9.114;2022-10-17T11:46:17;1.40;;;1.30;;
11651;SDS011;5882;48.818;9.114;2022-10-17T11:48:49;1.50;;;1.40;;
11651;SDS011;5882;48.818;9.114;2022-10-17T11:51:17;3.53;;;1.40;;
11651;SDS011;5882;48.818;9.114;2022-10-17T11:53:45;1.70;;;1.60;;
11651;SDS011;5882;48.818;9.114;2022-10-17T11:56:16;1.70;;;1.13;;
11651;SDS011;5882;48.818;9.114;2022-10-17T11:58:45;1.67;;;1.58;;
11651;SDS011;5882;48.818;9.114;2022-10-17T12:01:17;1.05;;;1.05;;
11651;SDS011;5882;48.818;9.114;2022-10-17T12:03:54;1.40;;;1.30;;
11651;SDS011;5882;48.818;9.114;2022-10-17T12:06:26;1.98;;;1.75;;
11651;SDS011;5882;48.818;9.114;2022-10-17T12:08:57;1.38;;;1.27;;
11651;SDS011;5882;48.818;9.114;2022-10-17T12:11:29;2.35;;;1.30;;
11651;SDS011;5882;48.818;9.114;2022-10-17T12:13:59;1.27;;;1.23;;
11651;SDS011;5882;48.818;9.114;2022-10-17T12:19:23;1.48;;;1.15;;
11651;SDS011;5882;48.818;9.114;2022-10-17T12:21:54;1.40;;;1.30;;
11651;SDS011;5882;48.818;9.114;2022-10-17T12:24:23;1.40;;;1.30;;
11651;SDS011;5882;48.818;9.114;2022-10-17T12:26:53;1.40;;;1.30;;
11651;SDS011;5882;48.818;9.114;2022-10-17T12:29:22;1.90;;;1.30;;
11651;SDS011;5882;48.818;9.114;2022-10-17T12:31:51;1.83;;;1.40;;
11651;SDS011;5882;48.818;9.114;2022-10-17T12:34:17;1.25;;;1.15;;
11651;SDS011;5882;48.818;9.114;2022-10-17T12:36:44;1.60;;;1.50;;
11651;SDS011;5882;48.818;9.114;2022-10-17T12:41:58;1.50;;;1.40;;
11651;SDS011;5882;48.818;9.114;2022-10-17T12:44:34;1.52;;;1.40;;
11651;SDS011;5882;48.818;9.114;2022-10-17T12:49:43;1.48;;;1.35;;
11651;SDS011;5882;48.818;9.114;2022-10-17T12:52:15;4.20;;;1.70;;
11651;SDS011;5882;48.818;9.114;2022-10-17T12:54:42;2.15;;;1.80;;
11651;SDS011;5882;48.818;9.114;2022-10-17T12:57:14;2.28;;;1.88;;
11651;SDS011;5882;48.818;9.114;2022-10-17T12:59:43;1.67;;;1.58;;
11651;SDS011;5882;48.818;9.114;2022-10-17T13:02:13;1.80;;;1.70;;
11651;SDS011;5882;48.818;9.114;2022-10-17T13:04:42;1.90;;;1.80;;
11651;SDS011;5882;48.818;9.114;2022-10-17T13:07:11;2.67;;;2.47;;
11651;SDS011;5882;48.818;9.114;2022-10-17T13:09:41;1.90;;;1.80;;
11651;SDS011;5882;48.818;9.114;2022-10-17T13:12:09;1.80;;;1.70;;
11651;SDS011;5882;48.818;9.114;2022-10-17T13:14:39;1.58;;;1.48;;
11651;SDS011;5882;48.818;9.114;2022-10-17T13:17:17;2.35;;;1.88;;
11651;SDS011;5882;48.818;9.114;2022-10-17T13:19:45;1.77;;;1.65;;
11651;SDS011;5882;48.818;9.114;2022-10-17T13:22:13;1.65;;;1.55;;
11651;SDS011;5882;48.818;9.114;2022-10-17T13:24:40;1.40;;;1.30;;
11651;SDS011;5882;48.818;9.114;2022-10-17T13:27:20;2.53;;;1.80;;
11651;SDS011;5882;48.818;9.114;2022-10-17T13:29:48;1.70;;;1.60;;
11651;SDS011;5882;48.818;9.114;2022-10-17T13:32:15;2.05;;;1.58;;
11651;SDS011;5882;48.818;9.114;2022-10-17T13:34:41;3.35;;;2.50;;
11651;SDS011;5882;48.818;9.114;2022-10-17T13:37:10;2.53;;;1.77;;
11651;SDS011;5882;48.818;9.114;2022-10-17T13:39:38;2.13;;;1.95;;
11651;SDS011;5882;48.818;9.114;2022-10-17T13:42:05;1.80;;;1.70;;
11651;SDS011;5882;48.818;9.114;2022-10-17T13:44:35;1.98;;;1.67;;
11651;SDS011;5882;48.818;9.114;2022-10-17T13:47:03;1.50;;;1.40;;
11651;SDS011;5882;48.818;9.114;2022-10-17T13:49:30;1.70;;;1.60;;
11651;SDS011;5882;48.818;9.114;2022-10-17T13:51:58;1.55;;;1.45;;
11651;SDS011;5882;48.818;9.114;2022-10-17T13:54:34;1.80;;;1.65;;
11651;SDS011;5882;48.818;9.114;2022-10-17T13:57:01;1.60;;;1.50;;
11651;SDS011;5882;48.818;9.114;2022-10-17T13:59:29;3.40;;;1.70;;
11651;SDS011;5882;48.818;9.114;2022-10-17T14:01:57;1.95;;;1.58;;
11651;SDS011;5882;48.818;9.114;2022-10-17T14:04:27;2.55;;;1.83;;
11651;SDS011;5882;48.818;9.114;2022-10-17T14:06:53;1.67;;;1.50;;
11651;SDS011;5882;48.818;9.114;2022-10-17T14:09:24;2.78;;;1.55;;
11651;SDS011;5882;48.818;9.114;2022-10-17T14:11:55;2.13;;;1.70;;
11651;SDS011;5882;48.818;9.114;2022-10-17T14:14:23;1.60;;;1.50;;
11651;SDS011;5882;48.818;9.114;2022-10-17T14:16:50;1.65;;;1.55;;
11651;SDS011;5882;48.818;9.114;2022-10-17T14:19:21;1.50;;;1.40;;
11651;SDS011;5882;48.818;9.114;2022-10-17T14:21:51;1.60;;;1.50;;
11651;SDS011;5882;48.818;9.114;2022-10-17T14:24:25;2.75;;;1.55;;
11651;SDS011;5882;48.818;9.114;2022-10-17T14:26:53;1.70;;;1.60;;
11651;SDS011;5882;48.818;9.114;2022-10-17T14:29:23;2.00;;;1.45;;
11651;SDS011;5882;48.818;9.114;2022-10-17T14:31:55;2.28;;;1.80;;
11651;SDS011;5882;48.818;9.114;2022-10-17T14:34:23;1.60;;;1.50;;
11651;SDS011;5882;48.818;9.114;2022-10-17T14:36:51;2.03;;;1.67;;
11651;SDS011;5882;48.818;9.114;2022-10-17T14:39:19;1.70;;;1.40;;
11651;SDS011;5882;48.818;9.114;2022-10-17T14:41:47;2.08;;;1.60;;
11651;SDS011;5882;48.818;9.114;2022-10-17T14:44:16;1.63;;;1.52;;
11651;SDS011;5882;48.818;9.114;2022-10-17T14:46:44;1.65;;;1.55;;
11651;SDS011;5882;48.818;9.114;2022-10-17T14:49:15;2.40;;;2.00;;
11651;SDS011;5882;48.818;9.114;2022-10-17T14:54:25;1.90;;;1.80;;
11651;SDS011;5882;48.818;9.114;2022-10-17T14:56:53;1.90;;;1.70;;
11651;SDS011;5882;48.818;9.114;2022-10-17T14:59:20;2.70;;;2.10;;
11651;SDS011;5882;48.818;9.114;2022-10-17T15:01:49;1.63;;;1.52;;
11651;SDS011;5882;48.818;9.114;2022-10-17T15:04:15;1.70;;;1.60;;
11651;SDS011;5882;48.818;9.114;2022-10-17T15:06:42;1.60;;;1.50;;
11651;SDS011;5882;48.818;9.114;2022-10-17T15:09:09;1.55;;;1.45;;
11651;SDS011;5882;48.818;9.114;2022-10-17T15:11:37;1.60;;;1.50;;
11651;SDS011;5882;48.818;9.114;2022-10-17T15:14:04;1.60;;;1.50;;
11651;SDS011;5882;48.818;9.114;2022-10-17T15:16:31;1.77;;;1.60;;
11651;SDS011;5882;48.818;9.114;2022-10-17T15:18:57;2.35;;;1.50;;